Deba, Spain
Current Conditions -  °F | °C
As of 9:30 PM on Saturday 20 Dec 2014 (Local Time) from LESO Reporting Station
Broken Clouds Broken Clouds  
Wind Chill: 54°   Ceiling: 600
Heat Index: 54°   Visibility: 6mi
Dew Point: 54°   Wind: 5mph
Humidity: 100%   Direction: 50°NE
Pressure: 30.59"   Gusts: NA
Location:  43.3°N, 2.35°W
Report Text: LESO 202030Z 05004KT 9999 BKN006 BKN008 12/12 Q1036
Loading
Personal Weather Stations






























Interactive Weather Map New forecast layout! Learn more

10-Day Weather Forecast

Advertisements
Track Severe Weather on mobile